Time;durP1;ratioP1;P1;durP2;ratioP2;P2;SDS_P1;SDS_P2;PMS_P1;PMS_P2;Temp;Humidity;BMP_temperature;BMP_pressure;BME280_temperature;BME280_humidity;BME280_pressure;Samples;Min_cycle;Max_cycle;Signal;HPM_P1;HPM_P2
2022/07/08 00:00:35;;;;;;;2.77;2.57;;;22.50;91.70;;;;;;5093457;28;20184;-91
2022/07/08 00:03:01;;;;;;;3.07;2.63;;;22.40;91.80;;;;;;5093634;28;21225;-92
2022/07/08 00:05:27;;;;;;;2.50;2.30;;;22.40;91.80;;;;;;5094070;28;20551;-92
2022/07/08 00:07:52;;;;;;;3.67;2.70;;;22.40;91.90;;;;;;5097446;28;20511;-92
2022/07/08 00:10:18;;;;;;;2.67;2.47;;;22.40;92.00;;;;;;5097170;28;20458;-92
2022/07/08 00:12:44;;;;;;;3.27;2.50;;;22.40;92.00;;;;;;5096803;28;20240;-91
2022/07/08 00:15:10;;;;;;;2.70;2.20;;;22.40;92.10;;;;;;5097182;28;20471;-92
2022/07/08 00:17:36;;;;;;;2.83;2.40;;;22.40;92.10;;;;;;5096857;28;20200;-92
2022/07/08 00:20:03;;;;;;;6.57;2.40;;;22.40;92.20;;;;;;5098675;28;20756;-92
2022/07/08 00:22:29;;;;;;;4.37;2.20;;;22.40;92.30;;;;;;5097220;28;20941;-92
2022/07/08 00:24:55;;;;;;;3.13;2.50;;;22.30;92.40;;;;;;5096668;28;20408;-93
2022/07/08 00:27:21;;;;;;;2.53;2.33;;;22.30;92.40;;;;;;5096913;28;20307;-91
2022/07/08 00:29:46;;;;;;;2.70;2.27;;;22.30;92.50;;;;;;5097238;28;21055;-91
2022/07/08 00:32:12;;;;;;;2.80;2.60;;;22.30;92.50;;;;;;5097130;28;20348;-92
2022/07/08 00:34:38;;;;;;;2.03;1.93;;;22.30;92.60;;;;;;5097136;28;20211;-92
2022/07/08 00:37:04;;;;;;;3.73;2.40;;;22.30;92.60;;;;;;5096776;28;20196;-91
2022/07/08 00:39:30;;;;;;;2.23;2.03;;;22.30;92.70;;;;;;5096589;28;20214;-91
2022/07/08 00:41:56;;;;;;;2.50;2.30;;;22.30;92.70;;;;;;5098693;28;20448;-91
2022/07/08 00:44:22;;;;;;;2.57;2.33;;;22.30;92.80;;;;;;5097681;28;20508;-92
2022/07/08 00:46:47;;;;;;;2.77;2.43;;;22.30;92.80;;;;;;5096955;28;20901;-92
2022/07/08 00:49:13;;;;;;;3.17;2.70;;;22.30;92.90;;;;;;5097863;28;20510;-91
2022/07/08 00:51:40;;;;;;;3.33;2.77;;;22.30;93.00;;;;;;5096549;28;20218;-92
2022/07/08 00:54:06;;;;;;;2.83;2.40;;;22.30;93.00;;;;;;5096616;28;20180;-91
2022/07/08 00:56:32;;;;;;;3.80;2.83;;;22.30;93.10;;;;;;5096654;28;20448;-91
2022/07/08 00:58:58;;;;;;;2.60;2.40;;;22.30;93.10;;;;;;5096381;28;20187;-92
2022/07/08 01:01:24;;;;;;;2.90;2.60;;;22.30;93.20;;;;;;5096303;28;20849;-91
2022/07/08 01:03:50;;;;;;;3.40;3.10;;;22.30;93.30;;;;;;5096135;28;20774;-92
2022/07/08 01:06:16;;;;;;;3.47;3.17;;;22.30;93.30;;;;;;5096009;28;20475;-92
2022/07/08 01:08:43;;;;;;;5.70;2.70;;;22.30;93.30;;;;;;5096538;28;20969;-92
2022/07/08 01:11:09;;;;;;;2.83;2.57;;;22.30;93.40;;;;;;5095900;28;20433;-92
2022/07/08 01:13:36;;;;;;;4.30;3.10;;;22.30;93.50;;;;;;5096127;28;20545;-91
2022/07/08 01:16:02;;;;;;;3.30;2.60;;;22.30;93.60;;;;;;5096637;28;20417;-92
2022/07/08 01:18:29;;;;;;;3.00;2.80;;;22.20;93.60;;;;;;5096136;28;20466;-93
2022/07/08 01:20:56;;;;;;;2.90;2.70;;;22.20;93.70;;;;;;5096299;28;20453;-92
2022/07/08 01:23:22;;;;;;;3.67;2.90;;;22.20;93.80;;;;;;5096115;28;20972;-92
2022/07/08 01:25:48;;;;;;;3.00;2.80;;;22.20;93.90;;;;;;5095759;28;20428;-91
2022/07/08 01:28:15;;;;;;;2.60;2.40;;;22.20;93.90;;;;;;5095638;28;20537;-91
2022/07/08 01:30:41;;;;;;;3.40;3.10;;;22.20;94.00;;;;;;5095820;28;20666;-92
2022/07/08 01:33:07;;;;;;;3.00;2.73;;;22.20;94.00;;;;;;5095528;28;20512;-92
2022/07/08 01:35:33;;;;;;;3.97;3.20;;;22.20;94.10;;;;;;5095805;28;20445;-91
2022/07/08 01:37:58;;;;;;;3.20;2.90;;;22.20;94.20;;;;;;5095335;28;20485;-91
2022/07/08 01:40:24;;;;;;;3.80;3.50;;;22.20;94.20;;;;;;5096777;28;20208;-92
2022/07/08 01:42:50;;;;;;;3.80;3.50;;;22.20;94.30;;;;;;5095767;28;20798;-93
2022/07/08 01:45:15;;;;;;;2.93;2.70;;;22.20;94.30;;;;;;5096746;28;20514;-93
2022/07/08 01:47:41;;;;;;;3.47;3.17;;;22.20;94.40;;;;;;5095521;28;20269;-92
2022/07/08 01:50:07;;;;;;;4.50;3.70;;;22.20;94.50;;;;;;5095140;28;20184;-92
2022/07/08 01:52:33;;;;;;;4.47;3.87;;;22.20;94.50;;;;;;5095136;28;20539;-92
2022/07/08 01:54:59;;;;;;;4.67;4.20;;;22.20;94.60;;;;;;5095387;28;20416;-92
2022/07/08 01:57:25;;;;;;;4.80;3.60;;;22.20;94.70;;;;;;5095324;28;20208;-92
2022/07/08 01:59:50;;;;;;;3.90;3.57;;;22.20;94.80;;;;;;5095763;28;20225;-92
2022/07/08 02:02:20;;;;;;;5.90;3.10;;;22.10;94.80;;;;;;5095507;28;20807;-92
2022/07/08 02:04:46;;;;;;;4.17;3.80;;;22.10;94.90;;;;;;5095175;28;20255;-91
2022/07/08 02:07:13;;;;;;;3.90;3.60;;;22.10;95.00;;;;;;5095564;28;21012;-92
2022/07/08 02:09:39;;;;;;;4.60;3.70;;;22.10;95.10;;;;;;5094612;28;20781;-91
2022/07/08 02:12:18;;;;;;;4.27;3.87;;;22.00;95.30;;;;;;5095014;28;20449;-92
2022/07/08 02:14:52;;;;;;;3.90;3.03;;;22.00;95.40;;;;;;5094928;28;20413;-91
2022/07/08 02:17:20;;;;;;;4.53;3.13;;;21.90;95.50;;;;;;5095537;28;20508;-92
2022/07/08 02:19:46;;;;;;;4.80;3.40;;;21.90;95.70;;;;;;5095800;28;20417;-91
2022/07/08 02:22:13;;;;;;;3.93;3.07;;;21.80;96.10;;;;;;5095022;28;20445;-92
2022/07/08 02:24:39;;;;;;;3.83;3.43;;;21.80;96.20;;;;;;5094712;28;20444;-92
2022/07/08 02:27:05;;;;;;;3.83;3.10;;;21.80;96.00;;;;;;5094691;28;20480;-91
2022/07/08 02:29:31;;;;;;;5.80;3.40;;;21.70;96.10;;;;;;5093909;28;20184;-91
2022/07/08 02:31:57;;;;;;;3.60;3.20;;;21.60;96.40;;;;;;5094582;28;20449;-93
2022/07/08 02:34:22;;;;;;;3.70;3.40;;;21.60;96.60;;;;;;5094674;28;20180;-91
2022/07/08 02:36:48;;;;;;;4.20;3.77;;;21.50;96.80;;;;;;5095221;28;20437;-91
2022/07/08 02:39:14;;;;;;;3.60;3.30;;;21.50;97.00;;;;;;5094794;28;20176;-91
2022/07/08 02:41:41;;;;;;;5.10;3.40;;;21.50;97.20;;;;;;5094427;28;20196;-92
2022/07/08 02:44:07;;;;;;;3.70;3.20;;;21.50;97.30;;;;;;5094529;28;20413;-91
2022/07/08 02:46:33;;;;;;;7.80;4.10;;;21.40;97.40;;;;;;5094308;28;20544;-92
2022/07/08 02:48:59;;;;;;;3.33;3.03;;;21.40;97.60;;;;;;5094425;28;20176;-91
2022/07/08 02:51:25;;;;;;;3.40;3.10;;;21.40;97.70;;;;;;5094337;28;20548;-92
2022/07/08 02:53:50;;;;;;;3.63;3.33;;;21.40;97.90;;;;;;5094346;28;20416;-92
2022/07/08 02:56:16;;;;;;;3.40;3.10;;;21.40;98.00;;;;;;5094435;28;20187;-91
2022/07/08 02:58:42;;;;;;;3.00;2.80;;;21.30;98.10;;;;;;5096508;28;20180;-92
2022/07/08 03:01:07;;;;;;;3.17;2.87;;;21.30;98.10;;;;;;5095705;28;20179;-93
2022/07/08 03:03:33;;;;;;;4.80;3.00;;;21.30;98.20;;;;;;5094855;28;20264;-91
2022/07/08 03:05:59;;;;;;;5.13;3.37;;;21.30;98.30;;;;;;5093929;28;20230;-91
2022/07/08 03:08:24;;;;;;;4.07;3.63;;;21.30;98.40;;;;;;5094250;28;20307;-92
2022/07/08 03:10:51;;;;;;;4.27;3.50;;;21.40;98.50;;;;;;5093911;28;20244;-92
2022/07/08 03:13:16;;;;;;;3.57;2.90;;;21.40;98.50;;;;;;5094810;28;20207;-92
2022/07/08 03:15:42;;;;;;;3.53;3.23;;;21.40;98.60;;;;;;5094309;28;20523;-90
2022/07/08 03:18:08;;;;;;;3.73;3.37;;;21.40;98.60;;;;;;5093923;28;20204;-93
2022/07/08 03:20:34;;;;;;;3.27;2.97;;;21.40;98.70;;;;;;5094079;28;20183;-92
2022/07/08 03:23:00;;;;;;;3.10;2.80;;;21.40;99.10;;;;;;5093580;28;20197;-91
2022/07/08 03:25:26;;;;;;;4.60;3.17;;;21.40;99.00;;;;;;5094309;28;20515;-92
2022/07/08 03:27:52;;;;;;;3.23;2.93;;;21.30;98.80;;;;;;5093671;28;20893;-92
2022/07/08 03:30:18;;;;;;;3.10;2.90;;;21.30;99.00;;;;;;5094027;28;20451;-92
2022/07/08 03:32:43;;;;;;;3.33;3.10;;;21.30;98.90;;;;;;5093819;28;20203;-91
2022/07/08 03:35:09;;;;;;;8.10;5.00;;;21.30;98.90;;;;;;5093667;28;20412;-92
2022/07/08 03:37:35;;;;;;;22.57;15.57;;;21.30;98.90;;;;;;5093802;28;20276;-93
2022/07/08 03:41:19;;;;;;;6.23;4.77;;;21.30;99.00;;;;;;5096625;28;20588;-92
2022/07/08 03:42:46;;;;;;;3.93;3.53;;;21.30;99.10;;;;;;5098533;28;20444;-92
2022/07/08 03:45:12;;;;;;;4.40;3.20;;;21.30;99.40;;;;;;5098785;28;20412;-92
2022/07/08 03:47:38;;;;;;;3.70;3.40;;;21.30;99.50;;;;;;5097771;28;20216;-93
2022/07/08 03:50:04;;;;;;;5.50;3.33;;;21.30;99.50;;;;;;5097708;28;20186;-94
2022/07/08 03:52:30;;;;;;;5.67;3.90;;;21.30;99.90;;;;;;5100260;28;20196;-93
2022/07/08 03:54:55;;;;;;;3.87;3.53;;;21.30;99.90;;;;;;5098189;28;20421;-92
2022/07/08 03:57:21;;;;;;;4.50;4.10;;;21.30;99.90;;;;;;5099263;28;20201;-92
2022/07/08 03:59:47;;;;;;;3.87;3.53;;;21.30;99.90;;;;;;5098489;28;20183;-92
2022/07/08 04:02:13;;;;;;;4.40;4.00;;;21.20;99.90;;;;;;5080552;28;20451;-92
2022/07/08 04:04:39;;;;;;;4.17;3.77;;;21.20;99.90;;;;;;5098927;28;20453;-92
2022/07/08 04:07:04;;;;;;;4.20;3.80;;;21.20;99.90;;;;;;5096171;28;20618;-92
2022/07/08 04:09:30;;;;;;;4.70;4.27;;;21.20;99.90;;;;;;5096893;28;20187;-93
2022/07/08 04:11:56;;;;;;;4.17;3.80;;;21.20;99.90;;;;;;5097351;28;20676;-92
2022/07/08 04:14:22;;;;;;;4.50;4.10;;;21.10;99.90;;;;;;5096996;28;20182;-92
2022/07/08 04:16:47;;;;;;;4.13;3.80;;;21.10;99.90;;;;;;5097908;28;20451;-93
2022/07/08 04:19:13;;;;;;;5.10;4.60;;;21.10;99.90;;;;;;5097080;28;20183;-92
2022/07/08 04:21:40;;;;;;;4.50;4.00;;;21.00;99.90;;;;;;5096815;28;20207;-92
2022/07/08 04:24:06;;;;;;;4.63;4.20;;;21.00;99.90;;;;;;5096597;28;20179;-92
2022/07/08 04:26:31;;;;;;;5.67;4.40;;;21.00;99.90;;;;;;5097129;28;20472;-92
2022/07/08 04:28:58;;;;;;;4.90;4.50;;;21.00;99.90;;;;;;5117979;28;20765;-92
2022/07/08 04:31:25;;;;;;;4.87;4.27;;;21.00;99.90;;;;;;5108262;28;20212;-93
2022/07/08 04:33:53;;;;;;;8.43;6.27;;;20.90;99.90;;;;;;5107886;28;20955;-93
2022/07/08 04:36:18;;;;;;;22.43;15.80;;;20.90;99.90;;;;;;5106641;28;20444;-92
2022/07/08 04:38:44;;;;;;;8.63;5.20;;;20.90;99.90;;;;;;5096526;28;20443;-93
2022/07/08 04:41:10;;;;;;;4.30;3.90;;;20.90;99.90;;;;;;5096884;28;20192;-93
2022/07/08 04:43:35;;;;;;;5.60;4.30;;;20.90;99.90;;;;;;5096996;28;20176;-92
2022/07/08 04:46:01;;;;;;;4.80;4.40;;;20.80;99.90;;;;;;5096873;28;20178;-92
2022/07/08 04:48:27;;;;;;;5.27;3.60;;;20.80;99.90;;;;;;5096516;28;20284;-92
2022/07/08 04:50:53;;;;;;;5.23;4.47;;;20.80;99.90;;;;;;5096306;28;20179;-94
2022/07/08 04:53:18;;;;;;;4.57;4.03;;;20.80;99.90;;;;;;5102709;28;20771;-93
2022/07/08 04:55:44;;;;;;;4.50;4.13;;;20.80;99.90;;;;;;5120642;28;20278;-92
2022/07/08 04:58:10;;;;;;;4.83;4.43;;;20.80;99.90;;;;;;5117164;28;20207;-93
2022/07/08 05:00:35;;;;;;;6.27;4.43;;;20.80;99.90;;;;;;5116832;28;20569;-93
2022/07/08 05:03:01;;;;;;;3.53;3.23;;;20.80;99.90;;;;;;5117598;28;20193;-92
2022/07/08 05:05:27;;;;;;;4.53;4.13;;;20.80;99.90;;;;;;5116066;28;20235;-94
2022/07/08 05:07:54;;;;;;;7.00;5.20;;;20.80;99.90;;;;;;5116507;28;20210;-91
2022/07/08 05:10:38;;;;;;;5.13;3.80;;;20.80;99.90;;;;;;5117682;28;20994;-92
2022/07/08 05:13:07;;;;;;;6.73;4.57;;;20.80;99.90;;;;;;5116177;28;20812;-92
2022/07/08 05:15:33;;;;;;;4.67;4.27;;;20.80;99.90;;;;;;5117280;28;20424;-93
2022/07/08 05:17:59;;;;;;;5.13;4.23;;;20.80;99.90;;;;;;5116015;28;20521;-93
2022/07/08 05:20:25;;;;;;;5.00;4.50;;;20.70;99.90;;;;;;5115907;28;20451;-93
2022/07/08 05:22:51;;;;;;;4.60;4.20;;;20.70;99.90;;;;;;5116011;28;20439;-94
2022/07/08 05:25:17;;;;;;;6.20;5.20;;;20.60;99.90;;;;;;5115768;28;20502;-93
2022/07/08 05:27:43;;;;;;;3.83;3.53;;;20.60;99.90;;;;;;5115484;28;20566;-93
2022/07/08 05:30:16;;;;;;;5.03;4.53;;;20.50;99.90;;;;;;5114364;28;20414;-93
2022/07/08 05:32:45;;;;;;;5.37;4.07;;;20.50;99.90;;;;;;5116102;28;20438;-92
2022/07/08 05:35:11;;;;;;;5.03;4.53;;;20.60;99.90;;;;;;5115656;28;20434;-93
2022/07/08 05:37:38;;;;;;;6.33;4.90;;;20.60;99.90;;;;;;5095912;28;20479;-90
2022/07/08 05:40:06;;;;;;;5.87;4.50;;;20.60;99.90;;;;;;5101819;28;20423;-94
2022/07/08 05:42:31;;;;;;;5.70;4.40;;;20.60;99.90;;;;;;5108295;28;20527;-89
2022/07/08 05:44:57;;;;;;;7.37;4.87;;;20.60;99.90;;;;;;5110666;28;20458;-94
2022/07/08 05:47:23;;;;;;;5.40;4.67;;;20.60;99.90;;;;;;5118020;28;20250;-89
2022/07/08 05:49:51;;;;;;;6.30;4.33;;;20.60;99.90;;;;;;5104934;28;20181;-94
2022/07/08 05:52:18;;;;;;;4.33;3.93;;;20.60;99.90;;;;;;5108973;28;20202;-89
2022/07/08 05:54:45;;;;;;;5.20;4.80;;;20.60;99.90;;;;;;5113054;28;20503;-95
2022/07/08 05:57:11;;;;;;;5.97;5.27;;;20.60;99.90;;;;;;5117106;28;20470;-95
2022/07/08 05:59:37;;;;;;;4.90;4.40;;;20.60;99.90;;;;;;5120591;28;20404;-94
2022/07/08 06:02:03;;;;;;;6.97;4.80;;;20.70;99.90;;;;;;5102483;28;20536;-89
2022/07/08 06:04:29;;;;;;;6.13;5.17;;;20.70;99.90;;;;;;5113109;28;20467;-91
2022/07/08 06:06:55;;;;;;;4.63;4.23;;;20.70;99.90;;;;;;5111266;28;20478;-89
2022/07/08 06:09:24;;;;;;;4.50;4.10;;;20.70;99.90;;;;;;5113668;28;20249;-92
2022/07/08 06:11:50;;;;;;;5.20;4.73;;;20.70;99.90;;;;;;5113689;28;20454;-95
2022/07/08 06:14:16;;;;;;;4.70;4.07;;;20.80;99.90;;;;;;5111695;28;20487;-91
2022/07/08 06:16:42;;;;;;;6.07;4.80;;;20.80;99.90;;;;;;5104343;28;20558;-89
2022/07/08 06:19:15;;;;;;;5.37;4.87;;;20.70;99.90;;;;;;5103965;28;20506;-89
2022/07/08 06:21:41;;;;;;;4.80;4.40;;;20.70;99.90;;;;;;5099269;28;20664;-91
2022/07/08 06:24:07;;;;;;;5.53;4.47;;;20.70;99.90;;;;;;5091135;28;20444;-92
2022/07/08 06:26:32;;;;;;;4.40;3.97;;;20.80;99.90;;;;;;5105013;28;20566;-88
2022/07/08 06:28:58;;;;;;;5.17;4.77;;;20.80;99.90;;;;;;5098432;28;20498;-86
2022/07/08 06:31:24;;;;;;;7.20;5.20;;;20.80;99.90;;;;;;5104584;28;20217;-87
2022/07/08 06:33:56;;;;;;;5.93;3.37;;;20.90;99.90;;;;;;5108371;28;20212;-92
2022/07/08 06:36:25;;;;;;;8.10;4.80;;;21.00;99.90;;;;;;5104931;28;20214;-94
2022/07/08 06:38:52;;;;;;;7.37;4.63;;;21.10;99.90;;;;;;5101521;28;20452;-91
2022/07/08 06:41:19;;;;;;;4.57;4.17;;;21.20;99.90;;;;;;5093484;28;21021;-90
2022/07/08 06:43:45;;;;;;;6.83;5.00;;;21.30;99.90;;;;;;5098305;28;20935;-87
2022/07/08 06:46:11;;;;;;;59.73;51.50;;;21.40;99.90;;;;;;5104107;28;20487;-90
2022/07/08 06:48:37;;;;;;;10.80;9.73;;;21.30;99.90;;;;;;5094771;28;20490;-88
2022/07/08 06:51:03;;;;;;;7.60;4.90;;;21.30;99.90;;;;;;5102703;28;20440;-88
2022/07/08 06:54:34;;;;;;;4.20;3.80;;;21.30;99.90;;;;;;5104825;28;20175;-88
2022/07/08 06:56:14;;;;;;;5.03;3.93;;;21.30;99.90;;;;;;5099520;28;20192;-88
2022/07/08 06:58:40;;;;;;;4.53;4.13;;;21.30;99.90;;;;;;5099648;28;20522;-89
2022/07/08 07:01:05;;;;;;;4.57;4.17;;;21.40;99.90;;;;;;5105086;28;20498;-90
2022/07/08 07:03:31;;;;;;;4.70;4.20;;;21.50;99.90;;;;;;5101947;28;20237;-90
2022/07/08 07:05:57;;;;;;;5.23;4.73;;;21.50;99.90;;;;;;5107981;28;20231;-90
2022/07/08 07:08:23;;;;;;;5.20;4.70;;;21.50;99.90;;;;;;5112127;28;20482;-90
2022/07/08 07:10:48;;;;;;;5.10;4.60;;;21.50;99.90;;;;;;5113014;28;20191;-88
2022/07/08 07:13:15;;;;;;;5.90;5.23;;;21.50;99.90;;;;;;5100452;28;20208;-90
2022/07/08 07:15:41;;;;;;;9.30;3.97;;;21.50;99.90;;;;;;5109997;28;20439;-88
2022/07/08 07:18:08;;;;;;;4.57;4.17;;;21.50;99.90;;;;;;5107136;28;20440;-89
2022/07/08 07:20:34;;;;;;;5.60;4.20;;;21.60;99.90;;;;;;5097342;28;20574;-90
2022/07/08 07:23:00;;;;;;;5.47;4.30;;;21.60;99.90;;;;;;5098395;28;20528;-87
2022/07/08 07:25:26;;;;;;;5.37;4.07;;;21.60;99.90;;;;;;5105814;28;20665;-89
2022/07/08 07:27:52;;;;;;;4.33;3.97;;;21.70;99.90;;;;;;5102571;28;20478;-92
2022/07/08 07:30:24;;;;;;;5.30;4.10;;;21.70;99.90;;;;;;5111608;28;20184;-88
2022/07/08 07:32:52;;;;;;;4.40;4.00;;;21.70;99.90;;;;;;5105757;28;20436;-88
2022/07/08 07:35:18;;;;;;;5.90;4.60;;;21.80;99.90;;;;;;5108149;28;20814;-93
2022/07/08 07:37:44;;;;;;;4.30;3.90;;;21.80;99.90;;;;;;5113211;28;20486;-93
2022/07/08 07:40:12;;;;;;;5.93;4.30;;;21.90;99.90;;;;;;5111956;28;20434;-89
2022/07/08 07:42:38;;;;;;;6.70;4.13;;;22.10;99.90;;;;;;5099819;28;20208;-87
2022/07/08 07:45:05;;;;;;;4.30;3.90;;;22.20;99.90;;;;;;5104982;28;20545;-86
2022/07/08 07:47:31;;;;;;;4.70;3.80;;;22.30;99.90;;;;;;5100243;28;20224;-86
2022/07/08 07:49:58;;;;;;;4.47;4.07;;;22.40;99.90;;;;;;5101305;28;20420;-88
2022/07/08 07:52:24;;;;;;;6.77;4.40;;;22.50;99.90;;;;;;5107128;28;20519;-89
2022/07/08 07:54:50;;;;;;;4.33;3.63;;;22.60;99.90;;;;;;5101401;28;20565;-90
2022/07/08 07:57:16;;;;;;;3.50;3.20;;;22.70;99.90;;;;;;5096716;28;20212;-92
2022/07/08 07:59:41;;;;;;;4.83;4.00;;;22.80;99.90;;;;;;5101250;28;20937;-88
2022/07/08 08:02:08;;;;;;;4.10;3.70;;;23.00;99.90;;;;;;5097237;28;20205;-90
2022/07/08 08:04:33;;;;;;;4.93;4.33;;;23.10;99.90;;;;;;5099655;28;20195;-87
2022/07/08 08:06:59;;;;;;;5.93;4.57;;;23.20;99.90;;;;;;5099344;28;20476;-89
2022/07/08 08:09:25;;;;;;;4.72;3.50;;;23.30;99.90;;;;;;5103432;28;20410;-89
2022/07/08 08:11:51;;;;;;;4.57;3.97;;;23.40;99.90;;;;;;5104017;28;20204;-88
2022/07/08 08:14:17;;;;;;;7.40;4.47;;;23.50;99.90;;;;;;5107669;28;20424;-93
2022/07/08 08:16:43;;;;;;;4.00;3.70;;;23.60;99.90;;;;;;5096579;28;20401;-88
2022/07/08 08:19:08;;;;;;;4.00;3.60;;;23.70;99.90;;;;;;5097040;28;20773;-90
2022/07/08 08:21:37;;;;;;;4.10;3.70;;;23.70;99.90;;;;;;5099994;28;20216;-92
2022/07/08 08:24:03;;;;;;;4.20;3.80;;;23.80;99.90;;;;;;5094739;28;20173;-90
2022/07/08 08:26:29;;;;;;;4.50;4.00;;;23.80;99.90;;;;;;5096389;28;20515;-92
2022/07/08 08:28:55;;;;;;;6.13;3.83;;;23.90;99.90;;;;;;5105106;28;20484;-91
2022/07/08 08:31:21;;;;;;;6.70;3.50;;;23.90;99.90;;;;;;5111679;27;20208;-90
2022/07/08 08:33:46;;;;;;;4.03;3.63;;;23.90;99.90;;;;;;5104392;28;20569;-90
2022/07/08 08:36:12;;;;;;;4.13;3.73;;;24.00;99.90;;;;;;5103974;28;20189;-88
2022/07/08 08:38:37;;;;;;;5.13;3.90;;;24.00;99.90;;;;;;5104208;28;20174;-88
2022/07/08 08:41:04;;;;;;;3.50;3.00;;;24.00;99.90;;;;;;5096065;28;20216;-86
2022/07/08 08:43:29;;;;;;;3.70;3.40;;;24.10;99.90;;;;;;5098565;28;20185;-87
2022/07/08 08:45:55;;;;;;;6.70;3.10;;;24.10;99.90;;;;;;5100628;28;20440;-88
2022/07/08 08:48:23;;;;;;;3.80;3.23;;;24.20;99.90;;;;;;5104396;28;20220;-87
2022/07/08 08:50:54;;;;;;;4.87;3.87;;;24.20;99.90;;;;;;5109002;28;20190;-88
2022/07/08 08:53:23;;;;;;;3.77;3.47;;;24.20;99.90;;;;;;5099233;28;21011;-89
2022/07/08 08:55:51;;;;;;;6.73;3.60;;;24.20;99.90;;;;;;5100558;28;20437;-87
2022/07/08 08:58:17;;;;;;;2.80;2.60;;;24.30;99.90;;;;;;5112512;28;20477;-88
2022/07/08 09:00:43;;;;;;;4.80;3.67;;;24.30;99.90;;;;;;5100281;28;21044;-87
2022/07/08 09:03:08;;;;;;;3.60;3.27;;;24.30;99.90;;;;;;5103954;28;20193;-86
2022/07/08 09:05:34;;;;;;;4.77;3.70;;;24.40;99.90;;;;;;5108293;28;20483;-88
2022/07/08 09:08:00;;;;;;;3.30;3.00;;;24.40;99.90;;;;;;5093055;28;20210;-88
2022/07/08 09:10:26;;;;;;;3.83;3.27;;;24.40;99.90;;;;;;5099621;28;20240;-88
2022/07/08 09:13:12;;;;;;;4.10;3.37;;;24.50;99.90;;;;;;5097071;28;20342;-87
2022/07/08 09:15:38;;;;;;;3.20;3.00;;;24.60;99.90;;;;;;5117593;27;20454;-86
2022/07/08 09:18:07;;;;;;;3.33;3.13;;;24.60;99.90;;;;;;5105786;28;20784;-88
2022/07/08 09:20:44;;;;;;;3.30;3.10;;;24.70;99.90;;;;;;5113285;28;20192;-88
2022/07/08 09:23:35;;;;;;;3.63;3.33;;;24.80;99.90;;;;;;5113133;28;20438;-88
2022/07/08 09:26:06;;;;;;;3.63;3.17;;;24.90;99.90;;;;;;5091709;28;20530;-86
2022/07/08 09:28:34;;;;;;;2.87;2.73;;;25.00;99.90;;;;;;5105118;28;20487;-87
2022/07/08 09:31:02;;;;;;;8.03;3.37;;;25.00;99.90;;;;;;5102747;28;20430;-88
2022/07/08 09:33:29;;;;;;;5.17;3.20;;;25.00;99.90;;;;;;5108531;28;20496;-87
2022/07/08 09:36:00;;;;;;;6.63;3.13;;;25.10;99.90;;;;;;5102376;28;20440;-89
2022/07/08 09:38:27;;;;;;;3.37;3.17;;;25.20;99.90;;;;;;5095923;28;20554;-89
2022/07/08 09:41:04;;;;;;;3.20;3.00;;;25.30;99.90;;;;;;5098063;28;20440;-88
2022/07/08 09:43:31;;;;;;;2.70;2.50;;;25.30;99.90;;;;;;5102851;28;20428;-88
2022/07/08 09:46:05;;;;;;;3.50;3.20;;;25.40;99.90;;;;;;5099274;28;20533;-86
2022/07/08 09:48:30;;;;;;;3.00;2.70;;;25.50;99.60;;;;;;5103175;28;20550;-88
2022/07/08 09:50:59;;;;;;;3.17;2.87;;;25.50;99.70;;;;;;5107130;28;21003;-88
2022/07/08 09:53:27;;;;;;;4.20;3.87;;;25.50;99.50;;;;;;5103610;28;20655;-88
2022/07/08 09:55:55;;;;;;;3.03;2.83;;;25.50;99.30;;;;;;5091534;28;20632;-87
2022/07/08 09:58:24;;;;;;;8.23;3.33;;;25.40;99.30;;;;;;5108584;28;20451;-88
2022/07/08 10:00:51;;;;;;;4.93;2.93;;;25.40;99.20;;;;;;5100250;28;20445;-88
2022/07/08 10:03:18;;;;;;;3.70;3.40;;;25.40;99.30;;;;;;5095938;28;20498;-92
2022/07/08 10:05:45;;;;;;;4.73;2.90;;;25.50;99.00;;;;;;5106237;28;20511;-88
2022/07/08 10:08:11;;;;;;;3.17;2.93;;;25.50;99.30;;;;;;5106499;28;20528;-89
2022/07/08 10:10:42;;;;;;;2.97;2.77;;;25.60;98.90;;;;;;5103227;28;20426;-86
2022/07/08 10:13:08;;;;;;;3.37;3.07;;;25.60;98.70;;;;;;5096892;28;20456;-88
2022/07/08 10:15:36;;;;;;;3.27;3.07;;;25.70;98.70;;;;;;5099747;28;20880;-86
2022/07/08 10:18:16;;;;;;;3.63;2.93;;;25.70;98.60;;;;;;5106585;28;20447;-86
2022/07/08 10:20:47;;;;;;;3.53;3.20;;;25.80;98.00;;;;;;5098550;28;20474;-88
2022/07/08 10:23:27;;;;;;;3.93;3.30;;;25.90;97.60;;;;;;5105536;28;20872;-87
2022/07/08 10:25:56;;;;;;;3.17;2.97;;;26.00;97.90;;;;;;5099203;28;20498;-87
2022/07/08 10:28:33;;;;;;;3.20;3.00;;;25.90;97.90;;;;;;5096900;28;20506;-88
2022/07/08 10:30:59;;;;;;;3.90;3.00;;;26.00;96.90;;;;;;5101059;27;20532;-88
2022/07/08 10:33:26;;;;;;;2.90;2.70;;;26.10;97.20;;;;;;5106553;28;20910;-86
2022/07/08 10:36:08;;;;;;;4.67;3.03;;;26.00;97.30;;;;;;5103252;28;20219;-86
2022/07/08 10:38:36;;;;;;;4.40;2.67;;;26.10;96.60;;;;;;5098624;28;20425;-86
2022/07/08 10:41:07;;;;;;;3.33;3.03;;;26.10;96.50;;;;;;5092384;28;20421;-88
2022/07/08 10:43:33;;;;;;;4.00;3.60;;;26.10;96.30;;;;;;5092703;28;20428;-88
2022/07/08 10:46:13;;;;;;;4.23;3.17;;;26.10;95.80;;;;;;5098657;28;20497;-87
2022/07/08 10:48:43;;;;;;;3.13;2.83;;;26.20;96.00;;;;;;5095311;28;20866;-86
2022/07/08 10:51:29;;;;;;;2.70;2.53;;;26.20;96.10;;;;;;5108144;28;20432;-88
2022/07/08 10:54:02;;;;;;;3.43;2.40;;;26.10;95.40;;;;;;5089320;28;20389;-87
2022/07/08 10:56:50;;;;;;;2.43;2.33;;;26.20;96.40;;;;;;5088972;28;20457;-89
2022/07/08 10:59:28;;;;;;;3.07;2.43;;;26.10;96.50;;;;;;5089811;28;20983;-87
2022/07/08 11:02:08;;;;;;;2.93;2.73;;;26.20;96.10;;;;;;5098994;28;20455;-88
2022/07/08 11:04:33;;;;;;;2.80;2.60;;;26.20;96.40;;;;;;5099863;27;20443;-89
2022/07/08 11:07:14;;;;;;;5.10;2.70;;;26.30;94.50;;;;;;5096946;28;20488;-88
2022/07/08 11:09:41;;;;;;;2.80;2.60;;;26.40;94.40;;;;;;5093254;28;20192;-87
2022/07/08 11:12:12;;;;;;;2.53;2.33;;;26.40;94.40;;;;;;5093005;28;20503;-88
2022/07/08 11:14:46;;;;;;;2.37;2.17;;;26.40;95.50;;;;;;5101561;28;20511;-90
2022/07/08 11:17:15;;;;;;;2.80;2.60;;;26.40;95.50;;;;;;5107902;28;20471;-90
2022/07/08 11:19:42;;;;;;;2.50;2.30;;;26.40;95.30;;;;;;5097403;28;20457;-91
2022/07/08 11:22:09;;;;;;;2.63;2.53;;;26.40;95.10;;;;;;5118804;27;20844;-88
2022/07/08 11:24:45;;;;;;;2.50;2.30;;;26.40;95.80;;;;;;5094495;28;20991;-88
2022/07/08 11:27:11;;;;;;;2.77;2.57;;;26.50;94.50;;;;;;5098239;28;20479;-91
2022/07/08 11:29:44;;;;;;;2.40;2.20;;;26.50;93.30;;;;;;5097554;28;20496;-90
2022/07/08 11:32:10;;;;;;;3.03;2.83;;;26.50;95.40;;;;;;5105264;28;20490;-88
2022/07/08 11:34:36;;;;;;;2.93;2.73;;;26.50;95.60;;;;;;5100243;28;20949;-89
2022/07/08 11:37:02;;;;;;;3.73;2.17;;;26.50;95.10;;;;;;5095749;28;20203;-91
2022/07/08 11:39:28;;;;;;;3.00;2.80;;;26.50;95.70;;;;;;5100998;28;20206;-89
2022/07/08 11:41:55;;;;;;;2.97;2.50;;;26.60;95.00;;;;;;5098025;28;20538;-88
2022/07/08 11:44:22;;;;;;;2.30;2.20;;;26.60;94.50;;;;;;5109128;28;20614;-86
2022/07/08 11:46:52;;;;;;;2.43;2.23;;;26.60;95.50;;;;;;5102166;28;20856;-87
2022/07/08 11:49:19;;;;;;;2.50;2.30;;;26.60;95.60;;;;;;5101193;28;20424;-88
2022/07/08 11:51:55;;;;;;;2.80;2.30;;;26.60;95.70;;;;;;5104434;28;20459;-91
2022/07/08 11:54:23;;;;;;;2.07;1.97;;;26.60;95.50;;;;;;5098739;28;20417;-90
2022/07/08 11:56:53;;;;;;;2.57;2.37;;;26.60;95.60;;;;;;5098911;28;20456;-92
2022/07/08 11:59:34;;;;;;;2.63;2.43;;;26.70;94.90;;;;;;5097971;28;20830;-91
2022/07/08 12:02:01;;;;;;;2.40;2.17;;;26.70;95.50;;;;;;5117229;27;20490;-90
2022/07/08 12:04:27;;;;;;;2.13;2.03;;;26.70;95.20;;;;;;5107364;28;20436;-91
2022/07/08 12:07:17;;;;;;;2.50;2.30;;;26.70;93.40;;;;;;5099432;28;20513;-90
2022/07/08 12:10:03;;;;;;;2.90;2.70;;;26.80;94.40;;;;;;5104334;28;20490;-90
2022/07/08 12:12:33;;;;;;;2.60;2.50;;;26.70;95.10;;;;;;5097547;28;20445;-87
2022/07/08 12:15:16;;;;;;;2.47;2.37;;;26.70;94.80;;;;;;5106265;28;20435;-93
2022/07/08 12:17:54;;;;;;;3.73;2.70;;;26.70;95.20;;;;;;5097482;28;20552;-90
2022/07/08 12:20:31;;;;;;;3.17;2.47;;;26.80;94.80;;;;;;5093263;28;20448;-90
2022/07/08 12:22:57;;;;;;;2.67;2.30;;;26.70;95.20;;;;;;5099774;28;20447;-92
2022/07/08 12:25:22;;;;;;;2.10;2.00;;;26.80;93.60;;;;;;5099270;28;20436;-87
2022/07/08 12:27:57;;;;;;;2.50;2.33;;;26.80;93.50;;;;;;5101264;28;20212;-88
2022/07/08 12:30:29;;;;;;;2.43;2.33;;;26.90;94.50;;;;;;5104695;27;20270;-90
2022/07/08 12:33:00;;;;;;;2.73;2.50;;;26.90;94.40;;;;;;5104622;28;20452;-89
2022/07/08 12:35:33;;;;;;;2.50;2.30;;;26.90;93.50;;;;;;5113714;28;20560;-95
2022/07/08 12:38:06;;;;;;;2.73;2.53;;;26.90;94.40;;;;;;5110467;28;20455;-93
2022/07/08 12:40:38;;;;;;;3.47;2.23;;;26.90;94.90;;;;;;5097632;28;20937;-93
2022/07/08 12:43:05;;;;;;;2.87;2.53;;;26.90;94.30;;;;;;5094043;28;20507;-90
2022/07/08 12:45:32;;;;;;;2.83;2.60;;;26.90;94.60;;;;;;5093601;28;20417;-89
2022/07/08 12:47:59;;;;;;;2.00;1.90;;;26.80;94.80;;;;;;5091115;28;20464;-89